createdAt,value
2022-09-12T00:01:20.261Z,3.67
2022-09-12T00:04:07.671Z,3.70
2022-09-12T00:06:55.590Z,3.77
2022-09-12T00:09:42.821Z,4.10
2022-09-12T00:12:30.135Z,3.75
2022-09-12T00:15:17.376Z,3.98
2022-09-12T00:18:04.679Z,4.05
2022-09-12T00:20:52.222Z,3.52
2022-09-12T00:23:39.389Z,3.47
2022-09-12T00:26:26.982Z,3.75
2022-09-12T00:29:19.839Z,3.67
2022-09-12T00:32:06.806Z,3.45
2022-09-12T00:34:54.351Z,3.87
2022-09-12T00:37:41.320Z,3.50
2022-09-12T00:40:28.806Z,3.60
2022-09-12T00:43:18.207Z,3.22
2022-09-12T00:46:23.815Z,3.77
2022-09-12T00:49:17.231Z,3.52
2022-09-12T00:52:13.618Z,3.37
2022-09-12T00:55:12.583Z,3.90
2022-09-12T00:58:11.046Z,3.72
2022-09-12T01:00:59.125Z,3.40
2022-09-12T01:03:46.571Z,3.60
2022-09-12T01:06:38.398Z,3.92
2022-09-12T01:09:26.921Z,3.77
2022-09-12T01:12:15.743Z,3.25
2022-09-12T01:15:03.143Z,3.50
2022-09-12T01:17:58.993Z,3.50
2022-09-12T01:21:00.281Z,3.45
2022-09-12T01:24:22.312Z,4.40
2022-09-12T01:27:28.071Z,4.00
2022-09-12T01:30:24.472Z,3.77
2022-09-12T01:33:23.783Z,3.67
2022-09-12T01:36:30.585Z,3.52
2022-09-12T01:39:33.055Z,3.20
2022-09-12T01:42:29.147Z,3.92
2022-09-12T01:45:25.237Z,3.45
2022-09-12T01:48:15.713Z,3.35
2022-09-12T01:51:20.826Z,3.27
2022-09-12T01:54:13.687Z,3.37
2022-09-12T01:57:02.855Z,3.50
2022-09-12T01:59:52.239Z,4.05
2022-09-12T02:02:42.096Z,3.52
2022-09-12T02:05:44.126Z,3.62
2022-09-12T02:08:34.493Z,3.85
2022-09-12T02:11:21.807Z,4.20
2022-09-12T02:14:12.072Z,4.10
2022-09-12T02:17:23.664Z,3.72
2022-09-12T02:20:31.086Z,3.72
2022-09-12T02:23:08.455Z,3.83
2022-09-12T02:25:58.168Z,4.17
2022-09-12T02:28:46.357Z,3.87
2022-09-12T02:31:42.447Z,4.03
2022-09-12T02:34:46.082Z,3.50
2022-09-12T02:37:36.487Z,3.85
2022-09-12T02:40:25.688Z,4.33
2022-09-12T02:43:13.155Z,4.03
2022-09-12T02:46:00.691Z,3.98
2022-09-12T02:48:48.246Z,3.75
2022-09-12T02:51:35.503Z,4.95
2022-09-12T02:54:22.751Z,3.72
2022-09-12T02:57:23.283Z,4.47
2022-09-12T03:03:11.903Z,4.03
2022-09-12T03:06:02.151Z,5.10
2022-09-12T03:09:13.008Z,4.58
2022-09-12T03:12:21.500Z,4.95
2022-09-12T03:15:23.734Z,4.60
2022-09-12T03:18:28.656Z,4.92
2022-09-12T03:21:27.966Z,5.58
2022-09-12T03:24:24.247Z,4.90
2022-09-12T03:30:01.818Z,5.12
2022-09-12T03:32:51.345Z,5.90
2022-09-12T03:35:38.983Z,5.60
2022-09-12T03:38:26.191Z,5.72
2022-09-12T03:41:13.592Z,5.92
2022-09-12T03:44:00.831Z,5.72
2022-09-12T03:46:48.375Z,5.28
2022-09-12T03:49:35.894Z,5.70
2022-09-12T03:52:23.193Z,6.58
2022-09-12T03:55:11.458Z,6.90
2022-09-12T03:57:58.719Z,6.67
2022-09-12T04:00:46.159Z,6.58
2022-09-12T04:03:33.431Z,6.60
2022-09-12T04:06:23.055Z,6.60
2022-09-12T04:09:10.447Z,6.30
2022-09-12T04:11:57.783Z,6.12
2022-09-12T04:14:44.911Z,6.62
2022-09-12T04:17:32.271Z,7.15
2022-09-12T04:20:19.634Z,6.97
2022-09-12T04:23:07.025Z,6.83
2022-09-12T04:25:59.879Z,7.53
2022-09-12T04:28:47.999Z,6.90
2022-09-12T04:31:35.303Z,7.00
2022-09-12T04:34:23.528Z,7.03
2022-09-12T04:37:11.888Z,6.53
2022-09-12T04:39:59.691Z,7.05
2022-09-12T04:42:47.007Z,7.17
2022-09-12T04:45:34.957Z,7.42
2022-09-12T04:48:22.800Z,7.47
2022-09-12T04:51:13.864Z,6.90
2022-09-12T04:54:04.386Z,6.37
2022-09-12T04:59:40.056Z,6.92
2022-09-12T05:02:27.585Z,6.83
2022-09-12T05:05:15.381Z,7.05
2022-09-12T05:08:03.001Z,7.30
2022-09-12T05:10:50.247Z,7.08
2022-09-12T05:13:38.055Z,7.17
2022-09-12T05:16:26.814Z,7.50
2022-09-12T05:19:13.918Z,7.15
2022-09-12T05:22:01.863Z,7.30
2022-09-12T05:24:50.765Z,7.22
2022-09-12T05:27:38.391Z,7.10
2022-09-12T05:30:25.673Z,7.15
2022-09-12T05:33:12.967Z,6.95
2022-09-12T05:36:00.928Z,7.10
2022-09-12T05:38:49.240Z,7.37
2022-09-12T05:41:36.927Z,7.50
2022-09-12T05:44:25.064Z,7.40
2022-09-12T05:47:13.359Z,6.80
2022-09-12T05:50:00.951Z,6.72
2022-09-12T05:52:48.024Z,7.53
2022-09-12T05:55:35.409Z,7.40
2022-09-12T05:58:23.239Z,8.28
2022-09-12T06:01:18.286Z,8.00
2022-09-12T06:04:06.719Z,8.50
2022-09-12T06:06:54.270Z,8.13
2022-09-12T06:09:42.424Z,8.65
2022-09-12T06:12:32.648Z,7.97
2022-09-12T06:18:07.303Z,8.95
2022-09-12T06:20:54.871Z,7.87
2022-09-12T06:23:42.760Z,7.17
2022-09-12T06:26:30.631Z,7.87
2022-09-12T06:29:19.447Z,7.62
2022-09-12T06:32:07.455Z,8.05
2022-09-12T06:34:54.936Z,8.08
2022-09-12T06:37:42.015Z,7.83
2022-09-12T06:40:29.935Z,8.05
2022-09-12T06:43:17.151Z,7.72
2022-09-12T06:46:05.207Z,8.35
2022-09-12T06:48:52.792Z,6.50
2022-09-12T06:51:41.783Z,6.67
2022-09-12T06:54:29.408Z,6.87
2022-09-12T06:57:18.008Z,6.67
2022-09-12T07:00:06.713Z,6.00
2022-09-12T07:02:57.519Z,6.35
2022-09-12T07:08:31.803Z,6.08
2022-09-12T07:11:21.659Z,5.72
2022-09-12T07:14:10.856Z,5.72
2022-09-12T07:16:58.463Z,5.28
2022-09-12T07:19:45.671Z,5.67
2022-09-12T07:22:33.071Z,6.40
2022-09-12T07:25:20.472Z,6.00
2022-09-12T07:28:07.687Z,5.22
2022-09-12T07:30:56.021Z,4.80
2022-09-12T07:33:44.473Z,5.20
2022-09-12T07:36:32.000Z,5.00
2022-09-12T07:39:19.481Z,4.50
2022-09-12T07:42:07.198Z,4.65
2022-09-12T07:44:54.561Z,4.03
2022-09-12T07:47:42.033Z,5.03
2022-09-12T07:50:29.071Z,4.67
2022-09-12T07:53:16.549Z,4.90
2022-09-12T07:56:05.606Z,4.05
2022-09-12T07:58:53.175Z,4.22
2022-09-12T08:01:41.701Z,3.83
2022-09-12T08:04:30.567Z,4.05
2022-09-12T08:07:19.351Z,4.62
2022-09-12T08:10:07.305Z,3.75
2022-09-12T08:12:54.695Z,4.00
2022-09-12T08:15:42.025Z,4.50
2022-09-12T08:18:30.063Z,3.52
2022-09-12T08:21:20.007Z,3.50
2022-09-12T08:24:07.993Z,3.52
2022-09-12T08:26:55.623Z,3.15
2022-09-12T08:29:43.063Z,3.45
2022-09-12T08:32:30.735Z,3.20
2022-09-12T08:35:18.022Z,3.27
2022-09-12T08:38:05.375Z,3.47
2022-09-12T08:40:54.913Z,3.27
2022-09-12T08:44:00.104Z,3.10
2022-09-12T08:47:08.832Z,2.80
2022-09-12T08:50:20.969Z,3.20
2022-09-12T08:53:15.976Z,2.50
2022-09-12T08:56:04.214Z,2.70
2022-09-12T08:58:51.984Z,2.98
2022-09-12T09:01:44.634Z,3.42
2022-09-12T09:04:38.120Z,3.45
2022-09-12T09:07:55.818Z,2.92
2022-09-12T09:10:53.034Z,3.40
2022-09-12T09:14:04.875Z,3.52
2022-09-12T09:16:51.249Z,3.50
2022-09-12T09:19:42.135Z,4.03
2022-09-12T09:25:25.617Z,3.52
2022-09-12T09:28:16.076Z,3.08
2022-09-12T09:31:03.417Z,5.20
2022-09-12T09:33:55.270Z,3.72
2022-09-12T09:36:45.264Z,2.45
2022-09-12T09:39:53.822Z,2.40
2022-09-12T09:42:59.839Z,2.95
2022-09-12T09:45:48.023Z,2.80
2022-09-12T09:48:37.472Z,3.30
2022-09-12T09:51:31.247Z,4.35
2022-09-12T09:54:22.886Z,3.05
2022-09-12T09:57:39.087Z,3.60
2022-09-12T10:00:37.652Z,4.12
2022-09-12T10:03:36.258Z,4.30
2022-09-12T10:09:22.167Z,5.75
2022-09-12T10:12:24.255Z,3.75
2022-09-12T10:15:25.623Z,3.20
2022-09-12T10:20:53.512Z,3.37
2022-09-12T10:23:41.528Z,3.75
2022-09-12T10:26:32.029Z,2.90
2022-09-12T10:29:22.424Z,2.15
2022-09-12T10:34:59.583Z,3.02
2022-09-12T10:38:04.633Z,2.55
2022-09-12T10:40:58.095Z,1.70
2022-09-12T10:43:45.582Z,2.45
2022-09-12T10:46:33.071Z,2.50
2022-09-12T10:49:31.472Z,2.77
2022-09-12T10:55:03.042Z,3.40
2022-09-12T10:58:05.623Z,2.80
2022-09-12T11:00:55.887Z,2.17
2022-09-12T11:04:20.287Z,1.85
2022-09-12T11:07:26.103Z,2.02
2022-09-12T11:10:47.320Z,2.10
2022-09-12T11:13:43.992Z,2.40
2022-09-12T11:16:52.066Z,2.12
2022-09-12T11:19:42.735Z,2.42
2022-09-12T11:22:32.966Z,2.55
2022-09-12T11:25:39.768Z,3.08
2022-09-12T11:31:25.098Z,2.95
2022-09-12T11:34:13.359Z,2.65
2022-09-12T11:37:28.008Z,2.45
2022-09-12T11:40:39.582Z,2.52
2022-09-12T11:43:46.884Z,1.98
2022-09-12T11:46:40.034Z,2.17
2022-09-12T11:49:38.683Z,1.80
2022-09-12T11:52:28.127Z,1.90
2022-09-12T11:55:24.799Z,2.10
2022-09-12T11:58:13.567Z,2.08
2022-09-12T12:01:21.039Z,1.90
2022-09-12T12:04:11.551Z,1.85
2022-09-12T12:07:01.633Z,1.67
2022-09-12T12:12:39.442Z,1.42
2022-09-12T12:15:27.767Z,1.82
2022-09-12T12:18:20.966Z,1.77
2022-09-12T12:21:40.161Z,1.70
2022-09-12T12:24:29.248Z,2.00
2022-09-12T12:27:47.720Z,1.60
2022-09-12T12:30:38.288Z,1.50
2022-09-12T12:33:31.623Z,1.70
2022-09-12T12:36:34.217Z,1.60
2022-09-12T12:39:36.545Z,1.50
2022-09-12T12:42:35.972Z,1.87
2022-09-12T12:45:31.873Z,1.87
2022-09-12T12:48:21.715Z,1.50
2022-09-12T12:51:34.680Z,1.50
2022-09-12T12:54:37.030Z,1.75
2022-09-12T12:57:27.665Z,1.50
2022-09-12T13:00:28.041Z,1.62
2022-09-12T13:03:29.287Z,1.50
2022-09-12T13:06:40.127Z,1.60
2022-09-12T13:09:35.898Z,2.30
2022-09-12T13:12:31.656Z,2.50
2022-09-12T13:15:40.065Z,5.05
2022-09-12T13:21:14.567Z,3.58
2022-09-12T13:24:04.840Z,3.00
2022-09-12T13:26:53.670Z,1.87
2022-09-12T13:29:42.285Z,1.37
2022-09-12T13:32:30.027Z,2.62
2022-09-12T13:35:37.224Z,2.90
2022-09-12T13:38:30.321Z,2.10
2022-09-12T13:41:44.809Z,1.62
2022-09-12T13:44:32.984Z,2.90
2022-09-12T13:50:17.913Z,3.35
2022-09-12T13:55:58.793Z,3.35
2022-09-12T13:58:57.484Z,4.15
2022-09-12T14:01:47.362Z,2.40
2022-09-12T14:04:52.608Z,2.67
2022-09-12T14:07:53.672Z,3.25
2022-09-12T14:10:45.426Z,2.98
2022-09-12T14:13:33.149Z,1.42
2022-09-12T14:16:21.976Z,2.00
2022-09-12T14:19:12.471Z,1.60
2022-09-12T14:22:01.496Z,1.60
2022-09-12T14:24:52.511Z,1.40
2022-09-12T14:27:46.607Z,1.50
2022-09-12T14:30:38.041Z,1.70
2022-09-12T14:33:25.535Z,1.30
2022-09-12T14:36:33.793Z,1.47
2022-09-12T14:39:41.984Z,1.37
2022-09-12T14:42:31.273Z,1.37
2022-09-12T14:48:16.744Z,1.40
2022-09-12T14:51:04.673Z,1.90
2022-09-12T14:53:52.167Z,1.60
2022-09-12T14:56:44.817Z,1.57
2022-09-12T14:59:38.018Z,1.62
2022-09-12T15:02:28.696Z,1.20
2022-09-12T15:05:24.784Z,1.52
2022-09-12T15:08:15.948Z,1.57
2022-09-12T15:11:03.039Z,1.72
2022-09-12T15:13:50.242Z,1.57
2022-09-12T15:16:39.113Z,1.60
2022-09-12T15:19:26.628Z,1.72
2022-09-12T15:22:16.656Z,1.75
2022-09-12T15:25:04.343Z,2.00
2022-09-12T15:27:56.304Z,1.90
2022-09-12T15:30:44.067Z,1.57
2022-09-12T15:33:31.615Z,1.87
2022-09-12T15:36:21.246Z,1.77
2022-09-12T15:39:09.810Z,1.50
2022-09-12T15:41:56.968Z,1.55
2022-09-12T15:44:44.848Z,1.75
2022-09-12T15:47:32.433Z,1.35
2022-09-12T15:50:20.175Z,2.00
2022-09-12T15:53:08.976Z,1.70
2022-09-12T15:55:56.071Z,1.80
2022-09-12T15:58:57.577Z,1.57
2022-09-12T16:01:32.766Z,1.60
2022-09-12T16:04:28.583Z,1.82
2022-09-12T16:07:19.016Z,2.02
2022-09-12T16:10:07.455Z,1.72
2022-09-12T16:12:54.974Z,3.02
2022-09-12T16:15:42.762Z,2.92
2022-09-12T16:18:31.599Z,2.80
2022-09-12T16:21:19.608Z,3.15
2022-09-12T16:24:07.482Z,3.05
2022-09-12T16:26:57.938Z,4.10
2022-09-12T16:29:43.656Z,6.72
2022-09-12T16:32:30.952Z,7.30
2022-09-12T16:35:18.650Z,3.70
2022-09-12T16:38:06.144Z,3.55
2022-09-12T16:40:53.855Z,2.80
2022-09-12T16:43:42.921Z,1.65
2022-09-12T16:46:30.398Z,1.82
2022-09-12T16:49:19.537Z,2.85
2022-09-12T16:52:07.879Z,1.98
2022-09-12T16:54:55.544Z,3.55
2022-09-12T16:57:42.575Z,3.47
2022-09-12T17:00:29.722Z,2.80
2022-09-12T17:03:17.445Z,2.42
2022-09-12T17:06:07.968Z,2.10
2022-09-12T17:09:01.407Z,2.30
2022-09-12T17:11:50.663Z,2.45
2022-09-12T17:14:39.683Z,2.22
2022-09-12T17:17:26.919Z,2.62
2022-09-12T17:20:14.064Z,3.08
2022-09-12T17:23:01.431Z,3.22
2022-09-12T17:25:54.808Z,4.50
2022-09-12T17:28:42.279Z,2.87
2022-09-12T17:31:29.678Z,2.10
2022-09-12T17:34:18.006Z,2.40
2022-09-12T17:37:05.520Z,2.45
2022-09-12T17:39:53.129Z,2.87
2022-09-12T17:42:43.431Z,3.55
2022-09-12T17:45:31.423Z,3.90
2022-09-12T17:48:19.641Z,4.17
2022-09-12T17:51:11.513Z,3.87
2022-09-12T17:54:01.247Z,3.55
2022-09-12T17:56:49.918Z,3.00
2022-09-12T17:59:37.481Z,3.08
2022-09-12T18:02:29.333Z,2.98
2022-09-12T18:05:15.887Z,2.85
2022-09-12T18:08:06.087Z,2.62
2022-09-12T18:10:53.687Z,3.10
2022-09-12T18:13:40.916Z,2.80
2022-09-12T18:16:31.774Z,2.67
2022-09-12T18:19:22.304Z,3.72
2022-09-12T18:22:14.160Z,3.10
2022-09-12T18:25:01.953Z,2.25
2022-09-12T18:27:49.632Z,2.70
2022-09-12T18:30:37.224Z,3.00
2022-09-12T18:33:24.744Z,2.60
2022-09-12T18:36:13.544Z,2.50
2022-09-12T18:39:03.215Z,2.98
2022-09-12T18:41:50.751Z,3.05
2022-09-12T18:44:38.362Z,4.35
2022-09-12T18:47:25.841Z,4.90
2022-09-12T18:50:13.225Z,4.97
2022-09-12T18:53:00.639Z,4.67
2022-09-12T18:55:47.992Z,4.75
2022-09-12T18:58:36.360Z,6.58
2022-09-12T19:01:28.846Z,4.72
2022-09-12T19:04:16.719Z,4.60
2022-09-12T19:07:07.316Z,6.22
2022-09-12T19:09:54.760Z,7.92
2022-09-12T19:12:42.015Z,9.98
2022-09-12T19:15:29.207Z,11.63
2022-09-12T19:18:18.884Z,12.15
2022-09-12T19:21:07.088Z,12.80
2022-09-12T19:23:59.503Z,11.88
2022-09-12T19:26:47.191Z,8.93
2022-09-12T19:29:35.143Z,14.18
2022-09-12T19:32:22.335Z,20.17
2022-09-12T19:35:12.027Z,15.25
2022-09-12T19:37:59.576Z,14.93
2022-09-12T19:40:48.671Z,17.98
2022-09-12T19:43:36.148Z,15.25
2022-09-12T19:46:25.311Z,17.48
2022-09-12T19:49:13.803Z,17.20
2022-09-12T19:52:01.607Z,18.17
2022-09-12T19:54:48.865Z,18.70
2022-09-12T19:57:36.137Z,17.32
2022-09-12T20:00:23.632Z,18.87
2022-09-12T20:03:12.097Z,17.00
2022-09-12T20:06:04.689Z,17.98
2022-09-12T20:08:52.183Z,17.95
2022-09-12T20:11:39.848Z,18.77
2022-09-12T20:14:27.415Z,18.17
2022-09-12T20:17:15.176Z,18.40
2022-09-12T20:20:02.656Z,17.57
2022-09-12T20:22:53.682Z,17.80
2022-09-12T20:25:41.512Z,16.73
2022-09-12T20:28:29.032Z,14.43
2022-09-12T20:31:17.327Z,15.32
2022-09-12T20:34:05.544Z,14.65
2022-09-12T20:36:52.816Z,14.85
2022-09-12T20:39:40.425Z,11.97
2022-09-12T20:42:27.737Z,13.88
2022-09-12T20:45:15.222Z,12.95
2022-09-12T20:48:03.038Z,13.03
2022-09-12T20:50:50.479Z,12.50
2022-09-12T20:53:38.010Z,14.53
2022-09-12T20:56:27.295Z,14.10
2022-09-12T20:59:17.632Z,13.35
2022-09-12T21:04:53.609Z,13.25
2022-09-12T21:07:41.256Z,14.40
2022-09-12T21:10:28.887Z,13.35
2022-09-12T21:13:16.616Z,13.55
2022-09-12T21:16:06.997Z,12.23
2022-09-12T21:18:56.582Z,12.05
2022-09-12T21:21:43.962Z,7.83
2022-09-12T21:24:31.175Z,12.45
2022-09-12T21:27:18.690Z,10.18
2022-09-12T21:30:06.623Z,10.68
2022-09-12T21:32:54.016Z,10.93
2022-09-12T21:35:41.625Z,12.28
2022-09-12T21:38:30.507Z,11.97
2022-09-12T21:41:18.646Z,11.08
2022-09-12T21:44:05.719Z,11.00
2022-09-12T21:46:53.331Z,11.12
2022-09-12T21:49:40.528Z,11.22
2022-09-12T21:52:28.289Z,10.85
2022-09-12T21:55:16.169Z,11.57
2022-09-12T21:58:03.656Z,11.18
2022-09-12T22:00:51.696Z,11.33
2022-09-12T22:03:41.855Z,11.57
2022-09-12T22:06:29.361Z,11.15
2022-09-12T22:09:17.714Z,11.35
2022-09-12T22:12:05.367Z,9.93
2022-09-12T22:14:54.497Z,10.50
2022-09-12T22:17:42.206Z,10.95
2022-09-12T22:20:29.664Z,10.25
2022-09-12T22:23:35.152Z,9.85
2022-09-12T22:26:22.681Z,9.53
2022-09-12T22:29:10.328Z,10.25
2022-09-12T22:32:24.431Z,10.13
2022-09-12T22:35:11.719Z,10.68
2022-09-12T22:37:59.361Z,9.40
2022-09-12T22:40:48.494Z,10.45
2022-09-12T22:43:36.887Z,9.78
2022-09-12T22:46:24.495Z,9.58
2022-09-12T22:49:11.919Z,10.88
2022-09-12T22:51:59.408Z,8.73
2022-09-12T22:54:46.842Z,8.48
2022-09-12T22:57:34.128Z,8.88
2022-09-12T23:00:21.435Z,8.43
2022-09-12T23:03:08.524Z,8.43
2022-09-12T23:05:55.799Z,7.72
2022-09-12T23:08:43.299Z,7.70
2022-09-12T23:11:30.639Z,8.63
2022-09-12T23:14:18.183Z,8.53
2022-09-12T23:17:05.209Z,8.70
2022-09-12T23:19:52.770Z,8.25
2022-09-12T23:22:40.382Z,8.60
2022-09-12T23:25:27.839Z,8.03
2022-09-12T23:28:14.863Z,8.35
2022-09-12T23:31:02.351Z,8.28
2022-09-12T23:33:50.271Z,7.67
2022-09-12T23:36:37.785Z,8.10
2022-09-12T23:39:25.124Z,8.25
2022-09-12T23:42:12.216Z,8.10
2022-09-12T23:44:59.783Z,7.95
2022-09-12T23:47:47.024Z,8.05
2022-09-12T23:50:34.255Z,8.53
2022-09-12T23:53:22.391Z,8.45
2022-09-12T23:56:09.779Z,8.10
2022-09-12T23:58:57.169Z,8.38
